sensor_id;sensor_type;location;lat;lon;timestamp;temperature;humidity
74081;SHT31;62438;52.228;6.864;2023-03-01T00:01:28;-3.62;94.12
74081;SHT31;62438;52.228;6.864;2023-03-01T00:03:29;-3.47;94.16
74081;SHT31;62438;52.228;6.864;2023-03-01T00:05:30;-3.31;93.66
74081;SHT31;62438;52.228;6.864;2023-03-01T00:07:30;-3.34;93.53
74081;SHT31;62438;52.228;6.864;2023-03-01T00:09:31;-3.44;93.46
74081;SHT31;62438;52.228;6.864;2023-03-01T00:11:32;-3.54;93.75
74081;SHT31;62438;52.228;6.864;2023-03-01T00:13:34;-3.54;94.29
74081;SHT31;62438;52.228;6.864;2023-03-01T00:15:38;-3.58;94.41
74081;SHT31;62438;52.228;6.864;2023-03-01T00:17:39;-3.59;94.78
74081;SHT31;62438;52.228;6.864;2023-03-01T00:19:40;-3.58;94.74
74081;SHT31;62438;52.228;6.864;2023-03-01T00:21:40;-3.58;94.78
74081;SHT31;62438;52.228;6.864;2023-03-01T00:23:41;-3.65;94.47
74081;SHT31;62438;52.228;6.864;2023-03-01T00:25:42;-3.65;94.80
74081;SHT31;62438;52.228;6.864;2023-03-01T00:27:42;-3.74;94.67
74081;SHT31;62438;52.228;6.864;2023-03-01T00:29:43;-3.72;94.81
74081;SHT31;62438;52.228;6.864;2023-03-01T00:31:43;-3.68;95.10
74081;SHT31;62438;52.228;6.864;2023-03-01T00:33:44;-3.66;94.80
74081;SHT31;62438;52.228;6.864;2023-03-01T00:35:45;-3.75;94.81
74081;SHT31;62438;52.228;6.864;2023-03-01T00:37:45;-3.78;94.97
74081;SHT31;62438;52.228;6.864;2023-03-01T00:39:46;-3.81;95.33
74081;SHT31;62438;52.228;6.864;2023-03-01T00:41:46;-3.85;95.10
74081;SHT31;62438;52.228;6.864;2023-03-01T00:43:47;-3.86;95.63
74081;SHT31;62438;52.228;6.864;2023-03-01T00:45:47;-3.86;95.46
74081;SHT31;62438;52.228;6.864;2023-03-01T00:47:49;-3.86;95.62
74081;SHT31;62438;52.228;6.864;2023-03-01T00:49:49;-3.87;95.44
74081;SHT31;62438;52.228;6.864;2023-03-01T00:51:49;-3.86;95.63
74081;SHT31;62438;52.228;6.864;2023-03-01T00:53:51;-3.87;95.73
74081;SHT31;62438;52.228;6.864;2023-03-01T00:55:52;-3.95;95.62
74081;SHT31;62438;52.228;6.864;2023-03-01T00:57:53;-3.95;95.92
74081;SHT31;62438;52.228;6.864;2023-03-01T00:59:53;-3.95;95.93
74081;SHT31;62438;52.228;6.864;2023-03-01T01:01:53;-3.95;95.86
74081;SHT31;62438;52.228;6.864;2023-03-01T01:04:02;-4.02;95.33
74081;SHT31;62438;52.228;6.864;2023-03-01T01:06:03;-3.99;95.94
74081;SHT31;62438;52.228;6.864;2023-03-01T01:08:09;-4.06;95.58
74081;SHT31;62438;52.228;6.864;2023-03-01T01:10:10;-4.07;96.06
74081;SHT31;62438;52.228;6.864;2023-03-01T01:12:17;-4.10;96.26
74081;SHT31;62438;52.228;6.864;2023-03-01T01:14:18;-4.13;96.45
74081;SHT31;62438;52.228;6.864;2023-03-01T01:16:21;-4.07;96.97
74081;SHT31;62438;52.228;6.864;2023-03-01T01:18:21;-4.06;96.67
74081;SHT31;62438;52.228;6.864;2023-03-01T01:20:22;-4.07;96.58
74081;SHT31;62438;52.228;6.864;2023-03-01T01:22:22;-4.10;96.54
74081;SHT31;62438;52.228;6.864;2023-03-01T01:24:22;-4.10;96.38
74081;SHT31;62438;52.228;6.864;2023-03-01T01:26:28;-4.05;96.24
74081;SHT31;62438;52.228;6.864;2023-03-01T01:28:29;-4.03;96.17
74081;SHT31;62438;52.228;6.864;2023-03-01T01:30:29;-4.03;96.01
74081;SHT31;62438;52.228;6.864;2023-03-01T01:32:30;-4.03;95.80
74081;SHT31;62438;52.228;6.864;2023-03-01T01:34:30;-3.99;96.30
74081;SHT31;62438;52.228;6.864;2023-03-01T01:36:31;-4.00;95.74
74081;SHT31;62438;52.228;6.864;2023-03-01T01:38:32;-4.05;95.33
74081;SHT31;62438;52.228;6.864;2023-03-01T01:40:33;-4.11;95.44
74081;SHT31;62438;52.228;6.864;2023-03-01T01:42:34;-4.13;95.60
74081;SHT31;62438;52.228;6.864;2023-03-01T01:44:34;-4.10;95.44
74081;SHT31;62438;52.228;6.864;2023-03-01T01:46:37;-4.05;95.64
74081;SHT31;62438;52.228;6.864;2023-03-01T01:48:45;-4.03;95.46
74081;SHT31;62438;52.228;6.864;2023-03-01T01:50:53;-4.06;95.30
74081;SHT31;62438;52.228;6.864;2023-03-01T01:52:55;-4.09;95.43
74081;SHT31;62438;52.228;6.864;2023-03-01T01:55:02;-4.13;95.48
74081;SHT31;62438;52.228;6.864;2023-03-01T01:57:07;-4.16;95.24
74081;SHT31;62438;52.228;6.864;2023-03-01T01:59:09;-4.17;95.42
74081;SHT31;62438;52.228;6.864;2023-03-01T02:01:11;-4.18;95.48
74081;SHT31;62438;52.228;6.864;2023-03-01T02:03:14;-4.23;95.56
74081;SHT31;62438;52.228;6.864;2023-03-01T02:05:32;-4.27;95.52
74081;SHT31;62438;52.228;6.864;2023-03-01T02:07:34;-4.31;95.61
74081;SHT31;62438;52.228;6.864;2023-03-01T02:09:35;-4.27;95.77
74081;SHT31;62438;52.228;6.864;2023-03-01T02:11:36;-4.23;95.76
74081;SHT31;62438;52.228;6.864;2023-03-01T02:13:37;-4.27;95.64
74081;SHT31;62438;52.228;6.864;2023-03-01T02:15:39;-4.26;95.81
74081;SHT31;62438;52.228;6.864;2023-03-01T02:17:40;-4.28;95.45
74081;SHT31;62438;52.228;6.864;2023-03-01T02:20:16;-4.28;95.39
74081;SHT31;62438;52.228;6.864;2023-03-01T02:22:28;-4.33;95.64
74081;SHT31;62438;52.228;6.864;2023-03-01T02:26:51;-4.23;95.52
74081;SHT31;62438;52.228;6.864;2023-03-01T02:28:55;-4.30;95.36
74081;SHT31;62438;52.228;6.864;2023-03-01T02:30:55;-4.33;95.12
74081;SHT31;62438;52.228;6.864;2023-03-01T02:33:14;-4.30;95.56
74081;SHT31;62438;52.228;6.864;2023-03-01T02:35:16;-4.35;95.59
74081;SHT31;62438;52.228;6.864;2023-03-01T02:37:17;-4.30;95.74
74081;SHT31;62438;52.228;6.864;2023-03-01T02:39:40;-4.28;95.49
74081;SHT31;62438;52.228;6.864;2023-03-01T02:41:46;-4.34;95.68
74081;SHT31;62438;52.228;6.864;2023-03-01T02:43:47;-4.33;95.82
74081;SHT31;62438;52.228;6.864;2023-03-01T02:45:49;-4.41;95.51
74081;SHT31;62438;52.228;6.864;2023-03-01T02:47:50;-4.44;95.72
74081;SHT31;62438;52.228;6.864;2023-03-01T02:49:53;-4.48;95.69
74081;SHT31;62438;52.228;6.864;2023-03-01T02:54:24;-4.51;95.92
74081;SHT31;62438;52.228;6.864;2023-03-01T02:56:25;-4.48;95.95
74081;SHT31;62438;52.228;6.864;2023-03-01T02:58:26;-4.48;96.35
74081;SHT31;62438;52.228;6.864;2023-03-01T03:00:32;-4.45;96.20
74081;SHT31;62438;52.228;6.864;2023-03-01T03:02:35;-4.45;96.26
74081;SHT31;62438;52.228;6.864;2023-03-01T03:04:36;-4.51;96.08
74081;SHT31;62438;52.228;6.864;2023-03-01T03:06:36;-4.53;95.76
74081;SHT31;62438;52.228;6.864;2023-03-01T03:08:37;-4.58;95.95
74081;SHT31;62438;52.228;6.864;2023-03-01T03:10:40;-4.57;96.37
74081;SHT31;62438;52.228;6.864;2023-03-01T03:12:41;-4.57;96.22
74081;SHT31;62438;52.228;6.864;2023-03-01T03:14:42;-4.57;96.09
74081;SHT31;62438;52.228;6.864;2023-03-01T03:16:43;-4.58;96.06
74081;SHT31;62438;52.228;6.864;2023-03-01T03:18:43;-4.62;96.26
74081;SHT31;62438;52.228;6.864;2023-03-01T03:20:44;-4.57;96.22
74081;SHT31;62438;52.228;6.864;2023-03-01T03:22:50;-4.60;96.22
74081;SHT31;62438;52.228;6.864;2023-03-01T03:24:50;-4.66;96.18
74081;SHT31;62438;52.228;6.864;2023-03-01T03:26:51;-4.68;96.60
74081;SHT31;62438;52.228;6.864;2023-03-01T03:28:51;-4.71;96.41
74081;SHT31;62438;52.228;6.864;2023-03-01T03:30:52;-4.72;96.71
74081;SHT31;62438;52.228;6.864;2023-03-01T03:32:52;-4.72;96.89
74081;SHT31;62438;52.228;6.864;2023-03-01T03:34:52;-4.74;96.59
74081;SHT31;62438;52.228;6.864;2023-03-01T03:36:56;-4.75;96.81
74081;SHT31;62438;52.228;6.864;2023-03-01T03:38:59;-4.71;96.96
74081;SHT31;62438;52.228;6.864;2023-03-01T03:41:02;-4.66;96.98
74081;SHT31;62438;52.228;6.864;2023-03-01T03:43:04;-4.75;96.60
74081;SHT31;62438;52.228;6.864;2023-03-01T03:45:05;-4.82;96.55
74081;SHT31;62438;52.228;6.864;2023-03-01T03:47:06;-4.79;96.78
74081;SHT31;62438;52.228;6.864;2023-03-01T03:49:06;-4.76;97.09
74081;SHT31;62438;52.228;6.864;2023-03-01T03:51:10;-4.79;97.04
74081;SHT31;62438;52.228;6.864;2023-03-01T03:53:11;-4.84;96.93
74081;SHT31;62438;52.228;6.864;2023-03-01T03:55:12;-4.84;97.25
74081;SHT31;62438;52.228;6.864;2023-03-01T03:57:12;-4.85;97.33
74081;SHT31;62438;52.228;6.864;2023-03-01T03:59:13;-4.85;97.66
74081;SHT31;62438;52.228;6.864;2023-03-01T04:01:13;-4.88;97.70
74081;SHT31;62438;52.228;6.864;2023-03-01T04:03:15;-4.86;97.44
74081;SHT31;62438;52.228;6.864;2023-03-01T04:05:20;-4.89;97.34
74081;SHT31;62438;52.228;6.864;2023-03-01T04:07:22;-4.76;97.73
74081;SHT31;62438;52.228;6.864;2023-03-01T04:09:22;-4.76;97.55
74081;SHT31;62438;52.228;6.864;2023-03-01T04:11:23;-4.84;97.22
74081;SHT31;62438;52.228;6.864;2023-03-01T04:13:26;-4.84;97.69
74081;SHT31;62438;52.228;6.864;2023-03-01T04:15:27;-4.84;97.91
74081;SHT31;62438;52.228;6.864;2023-03-01T04:17:27;-4.86;97.90
74081;SHT31;62438;52.228;6.864;2023-03-01T04:19:28;-4.84;98.21
74081;SHT31;62438;52.228;6.864;2023-03-01T04:21:28;-4.81;98.37
74081;SHT31;62438;52.228;6.864;2023-03-01T04:23:29;-4.82;98.51
74081;SHT31;62438;52.228;6.864;2023-03-01T04:25:29;-4.84;98.41
74081;SHT31;62438;52.228;6.864;2023-03-01T04:27:29;-4.82;98.51
74081;SHT31;62438;52.228;6.864;2023-03-01T04:29:30;-4.86;98.42
74081;SHT31;62438;52.228;6.864;2023-03-01T04:31:30;-4.89;98.59
74081;SHT31;62438;52.228;6.864;2023-03-01T04:33:30;-4.93;98.49
74081;SHT31;62438;52.228;6.864;2023-03-01T04:35:32;-4.89;98.72
74081;SHT31;62438;52.228;6.864;2023-03-01T04:37:32;-4.95;98.19
74081;SHT31;62438;52.228;6.864;2023-03-01T04:39:33;-4.97;98.54
74081;SHT31;62438;52.228;6.864;2023-03-01T04:41:33;-4.96;98.72
74081;SHT31;62438;52.228;6.864;2023-03-01T04:43:34;-5.03;98.29
74081;SHT31;62438;52.228;6.864;2023-03-01T04:45:35;-5.05;98.28
74081;SHT31;62438;52.228;6.864;2023-03-01T04:47:35;-5.09;98.53
74081;SHT31;62438;52.228;6.864;2023-03-01T04:49:38;-5.07;98.57
74081;SHT31;62438;52.228;6.864;2023-03-01T04:51:38;-5.09;98.60
74081;SHT31;62438;52.228;6.864;2023-03-01T04:53:40;-5.09;98.66
74081;SHT31;62438;52.228;6.864;2023-03-01T04:55:40;-5.10;98.74
74081;SHT31;62438;52.228;6.864;2023-03-01T04:57:41;-5.12;98.66
74081;SHT31;62438;52.228;6.864;2023-03-01T04:59:41;-5.09;98.65
74081;SHT31;62438;52.228;6.864;2023-03-01T05:01:42;-5.03;99.01
74081;SHT31;62438;52.228;6.864;2023-03-01T05:03:44;-5.07;98.51
74081;SHT31;62438;52.228;6.864;2023-03-01T05:05:50;-5.00;98.68
74081;SHT31;62438;52.228;6.864;2023-03-01T05:07:55;-5.07;98.38
74081;SHT31;62438;52.228;6.864;2023-03-01T05:09:56;-5.10;98.59
74081;SHT31;62438;52.228;6.864;2023-03-01T05:11:56;-5.14;98.28
74081;SHT31;62438;52.228;6.864;2023-03-01T05:13:57;-5.16;98.50
74081;SHT31;62438;52.228;6.864;2023-03-01T05:15:59;-5.17;98.76
74081;SHT31;62438;52.228;6.864;2023-03-01T05:18:00;-5.14;98.92
74081;SHT31;62438;52.228;6.864;2023-03-01T05:20:01;-5.19;98.96
74081;SHT31;62438;52.228;6.864;2023-03-01T05:22:02;-5.20;98.94
74081;SHT31;62438;52.228;6.864;2023-03-01T05:24:05;-5.20;99.06
74081;SHT31;62438;52.228;6.864;2023-03-01T05:26:10;-5.20;99.35
74081;SHT31;62438;52.228;6.864;2023-03-01T05:28:13;-5.10;99.11
74081;SHT31;62438;52.228;6.864;2023-03-01T05:30:14;-5.10;99.15
74081;SHT31;62438;52.228;6.864;2023-03-01T05:32:14;-5.09;98.86
74081;SHT31;62438;52.228;6.864;2023-03-01T05:34:15;-5.10;98.98
74081;SHT31;62438;52.228;6.864;2023-03-01T05:36:19;-5.17;99.11
74081;SHT31;62438;52.228;6.864;2023-03-01T05:38:20;-5.22;98.93
74081;SHT31;62438;52.228;6.864;2023-03-01T05:40:22;-5.19;98.96
74081;SHT31;62438;52.228;6.864;2023-03-01T05:42:24;-5.20;99.15
74081;SHT31;62438;52.228;6.864;2023-03-01T05:44:25;-5.19;99.14
74081;SHT31;62438;52.228;6.864;2023-03-01T05:46:25;-5.20;99.24
74081;SHT31;62438;52.228;6.864;2023-03-01T05:48:26;-5.24;99.29
74081;SHT31;62438;52.228;6.864;2023-03-01T05:50:28;-5.27;99.06
74081;SHT31;62438;52.228;6.864;2023-03-01T05:52:32;-5.26;99.17
74081;SHT31;62438;52.228;6.864;2023-03-01T05:54:33;-5.27;99.06
74081;SHT31;62438;52.228;6.864;2023-03-01T05:56:34;-5.27;99.41
74081;SHT31;62438;52.228;6.864;2023-03-01T05:58:34;-5.27;99.38
74081;SHT31;62438;52.228;6.864;2023-03-01T06:00:35;-5.30;99.34
74081;SHT31;62438;52.228;6.864;2023-03-01T06:02:35;-5.30;99.19
74081;SHT31;62438;52.228;6.864;2023-03-01T06:04:36;-5.33;98.92
74081;SHT31;62438;52.228;6.864;2023-03-01T06:06:37;-5.30;99.31
74081;SHT31;62438;52.228;6.864;2023-03-01T06:08:37;-5.30;99.06
74081;SHT31;62438;52.228;6.864;2023-03-01T06:10:38;-5.30;99.30
74081;SHT31;62438;52.228;6.864;2023-03-01T06:12:40;-5.30;99.30
74081;SHT31;62438;52.228;6.864;2023-03-01T06:14:41;-5.35;99.04
74081;SHT31;62438;52.228;6.864;2023-03-01T06:16:42;-5.28;99.50
74081;SHT31;62438;52.228;6.864;2023-03-01T06:18:42;-5.31;99.40
74081;SHT31;62438;52.228;6.864;2023-03-01T06:20:42;-5.20;99.46
74081;SHT31;62438;52.228;6.864;2023-03-01T06:22:43;-5.22;99.15
74081;SHT31;62438;52.228;6.864;2023-03-01T06:24:44;-5.26;98.99
74081;SHT31;62438;52.228;6.864;2023-03-01T06:26:45;-5.28;98.89
74081;SHT31;62438;52.228;6.864;2023-03-01T06:28:45;-5.27;99.26
74081;SHT31;62438;52.228;6.864;2023-03-01T06:30:46;-5.30;98.98
74081;SHT31;62438;52.228;6.864;2023-03-01T06:32:46;-5.26;99.30
74081;SHT31;62438;52.228;6.864;2023-03-01T06:34:47;-5.20;99.26
74081;SHT31;62438;52.228;6.864;2023-03-01T06:36:47;-5.17;99.33
74081;SHT31;62438;52.228;6.864;2023-03-01T06:38:47;-5.05;99.44
74081;SHT31;62438;52.228;6.864;2023-03-01T06:40:52;-5.05;99.17
74081;SHT31;62438;52.228;6.864;2023-03-01T06:42:54;-4.85;99.11
74081;SHT31;62438;52.228;6.864;2023-03-01T06:44:55;-4.84;98.96
74081;SHT31;62438;52.228;6.864;2023-03-01T06:46:55;-4.79;98.89
74081;SHT31;62438;52.228;6.864;2023-03-01T06:48:56;-4.76;98.63
74081;SHT31;62438;52.228;6.864;2023-03-01T06:50:58;-4.78;98.45
74081;SHT31;62438;52.228;6.864;2023-03-01T06:52:59;-4.79;98.50
74081;SHT31;62438;52.228;6.864;2023-03-01T06:55:00;-4.78;98.43
74081;SHT31;62438;52.228;6.864;2023-03-01T06:57:00;-4.74;98.64
74081;SHT31;62438;52.228;6.864;2023-03-01T06:59:01;-4.66;98.83
74081;SHT31;62438;52.228;6.864;2023-03-01T07:01:09;-4.65;98.66
74081;SHT31;62438;52.228;6.864;2023-03-01T07:03:10;-4.61;98.75
74081;SHT31;62438;52.228;6.864;2023-03-01T07:05:10;-4.58;98.62
74081;SHT31;62438;52.228;6.864;2023-03-01T07:07:11;-4.44;99.01
74081;SHT31;62438;52.228;6.864;2023-03-01T07:09:11;-4.40;98.73
74081;SHT31;62438;52.228;6.864;2023-03-01T07:11:12;-4.24;98.57
74081;SHT31;62438;52.228;6.864;2023-03-01T07:13:13;-4.13;98.54
74081;SHT31;62438;52.228;6.864;2023-03-01T07:15:13;-4.09;98.14
74081;SHT31;62438;52.228;6.864;2023-03-01T07:17:15;-3.97;98.01
74081;SHT31;62438;52.228;6.864;2023-03-01T07:19:15;-3.78;98.22
74081;SHT31;62438;52.228;6.864;2023-03-01T07:21:15;-3.68;96.98
74081;SHT31;62438;52.228;6.864;2023-03-01T07:23:16;-3.55;96.84
74081;SHT31;62438;52.228;6.864;2023-03-01T07:25:17;-3.40;96.45
74081;SHT31;62438;52.228;6.864;2023-03-01T07:27:17;-3.17;95.90
74081;SHT31;62438;52.228;6.864;2023-03-01T07:29:18;-2.93;94.98
74081;SHT31;62438;52.228;6.864;2023-03-01T07:31:18;-2.83;93.94
74081;SHT31;62438;52.228;6.864;2023-03-01T07:33:19;-2.51;91.97
74081;SHT31;62438;52.228;6.864;2023-03-01T07:35:21;-2.28;90.98
74081;SHT31;62438;52.228;6.864;2023-03-01T07:37:21;-1.85;88.42
74081;SHT31;62438;52.228;6.864;2023-03-01T07:39:21;-1.37;87.74
74081;SHT31;62438;52.228;6.864;2023-03-01T07:41:23;-0.83;84.65
74081;SHT31;62438;52.228;6.864;2023-03-01T07:43:23;-0.36;82.57
74081;SHT31;62438;52.228;6.864;2023-03-01T07:45:25;-0.07;81.82
74081;SHT31;62438;52.228;6.864;2023-03-01T07:47:25;0.21;80.44
74081;SHT31;62438;52.228;6.864;2023-03-01T07:49:26;0.39;80.04
74081;SHT31;62438;52.228;6.864;2023-03-01T07:51:27;0.72;78.30
74081;SHT31;62438;52.228;6.864;2023-03-01T07:53:27;0.64;78.65
74081;SHT31;62438;52.228;6.864;2023-03-01T07:55:28;0.69;78.56
74081;SHT31;62438;52.228;6.864;2023-03-01T07:57:28;0.78;75.54
74081;SHT31;62438;52.228;6.864;2023-03-01T07:59:29;0.85;75.80
74081;SHT31;62438;52.228;6.864;2023-03-01T08:01:29;0.87;75.87
74081;SHT31;62438;52.228;6.864;2023-03-01T08:03:30;0.88;76.62
74081;SHT31;62438;52.228;6.864;2023-03-01T08:05:30;0.99;75.70
74081;SHT31;62438;52.228;6.864;2023-03-01T08:07:30;1.15;74.58
74081;SHT31;62438;52.228;6.864;2023-03-01T08:09:31;1.23;73.10
74081;SHT31;62438;52.228;6.864;2023-03-01T08:11:31;1.51;73.08
74081;SHT31;62438;52.228;6.864;2023-03-01T08:13:32;1.71;73.20
74081;SHT31;62438;52.228;6.864;2023-03-01T08:15:33;1.84;71.92
74081;SHT31;62438;52.228;6.864;2023-03-01T08:17:33;1.93;72.37
74081;SHT31;62438;52.228;6.864;2023-03-01T08:19:34;1.93;70.37
74081;SHT31;62438;52.228;6.864;2023-03-01T08:21:35;2.09;71.08
74081;SHT31;62438;52.228;6.864;2023-03-01T08:23:36;2.19;70.80
74081;SHT31;62438;52.228;6.864;2023-03-01T08:25:36;2.32;69.64
74081;SHT31;62438;52.228;6.864;2023-03-01T08:27:37;2.54;69.04
74081;SHT31;62438;52.228;6.864;2023-03-01T08:29:37;2.63;67.60
74081;SHT31;62438;52.228;6.864;2023-03-01T08:31:40;2.88;67.01
74081;SHT31;62438;52.228;6.864;2023-03-01T08:33:40;2.88;65.24
74081;SHT31;62438;52.228;6.864;2023-03-01T08:35:41;3.07;64.86
74081;SHT31;62438;52.228;6.864;2023-03-01T08:37:42;3.21;63.99
74081;SHT31;62438;52.228;6.864;2023-03-01T08:39:42;3.26;63.98
74081;SHT31;62438;52.228;6.864;2023-03-01T08:41:42;3.38;63.06
74081;SHT31;62438;52.228;6.864;2023-03-01T08:43:43;3.38;62.40
74081;SHT31;62438;52.228;6.864;2023-03-01T08:45:44;3.60;62.49
74081;SHT31;62438;52.228;6.864;2023-03-01T08:47:44;3.58;61.86
74081;SHT31;62438;52.228;6.864;2023-03-01T08:49:45;3.53;61.71
74081;SHT31;62438;52.228;6.864;2023-03-01T08:51:46;3.60;61.01
74081;SHT31;62438;52.228;6.864;2023-03-01T08:53:47;3.70;61.81
74081;SHT31;62438;52.228;6.864;2023-03-01T08:55:47;3.73;61.05
74081;SHT31;62438;52.228;6.864;2023-03-01T08:57:48;3.51;60.60
74081;SHT31;62438;52.228;6.864;2023-03-01T08:59:48;3.60;61.65
74081;SHT31;62438;52.228;6.864;2023-03-01T09:01:49;3.72;61.32
74081;SHT31;62438;52.228;6.864;2023-03-01T09:03:49;4.04;60.90
74081;SHT31;62438;52.228;6.864;2023-03-01T09:05:50;4.11;59.39
74081;SHT31;62438;52.228;6.864;2023-03-01T09:07:51;3.98;59.40
74081;SHT31;62438;52.228;6.864;2023-03-01T09:09:51;4.28;59.79
74081;SHT31;62438;52.228;6.864;2023-03-01T09:11:54;4.40;59.28
74081;SHT31;62438;52.228;6.864;2023-03-01T09:13:54;4.65;58.06
74081;SHT31;62438;52.228;6.864;2023-03-01T09:15:54;4.46;59.29
74081;SHT31;62438;52.228;6.864;2023-03-01T09:17:55;4.48;58.37
74081;SHT31;62438;52.228;6.864;2023-03-01T09:19:55;4.48;58.64
74081;SHT31;62438;52.228;6.864;2023-03-01T09:21:55;4.42;58.47
74081;SHT31;62438;52.228;6.864;2023-03-01T09:23:58;4.52;57.70
74081;SHT31;62438;52.228;6.864;2023-03-01T09:25:58;4.52;59.16
74081;SHT31;62438;52.228;6.864;2023-03-01T09:27:59;4.53;57.87
74081;SHT31;62438;52.228;6.864;2023-03-01T09:29:59;4.59;58.62
74081;SHT31;62438;52.228;6.864;2023-03-01T09:31:59;4.51;58.18
74081;SHT31;62438;52.228;6.864;2023-03-01T09:34:00;4.70;57.13
74081;SHT31;62438;52.228;6.864;2023-03-01T09:36:03;4.86;56.76
74081;SHT31;62438;52.228;6.864;2023-03-01T09:38:04;4.89;57.80
74081;SHT31;62438;52.228;6.864;2023-03-01T09:40:06;5.04;56.66
74081;SHT31;62438;52.228;6.864;2023-03-01T09:42:12;4.83;55.80
74081;SHT31;62438;52.228;6.864;2023-03-01T09:44:35;5.21;54.68
74081;SHT31;62438;52.228;6.864;2023-03-01T09:46:42;5.00;54.49
74081;SHT31;62438;52.228;6.864;2023-03-01T09:48:48;4.86;55.21
74081;SHT31;62438;52.228;6.864;2023-03-01T09:50:51;4.77;55.37
74081;SHT31;62438;52.228;6.864;2023-03-01T09:53:02;4.97;54.98
74081;SHT31;62438;52.228;6.864;2023-03-01T09:55:11;4.94;54.61
74081;SHT31;62438;52.228;6.864;2023-03-01T09:57:17;5.11;54.84
74081;SHT31;62438;52.228;6.864;2023-03-01T09:59:26;5.16;56.03
74081;SHT31;62438;52.228;6.864;2023-03-01T10:01:32;5.24;54.08
74081;SHT31;62438;52.228;6.864;2023-03-01T10:03:40;5.21;54.92
74081;SHT31;62438;52.228;6.864;2023-03-01T10:05:55;5.40;53.54
74081;SHT31;62438;52.228;6.864;2023-03-01T10:08:27;5.32;52.75
74081;SHT31;62438;52.228;6.864;2023-03-01T10:10:37;5.62;53.55
74081;SHT31;62438;52.228;6.864;2023-03-01T10:12:40;5.51;53.26
74081;SHT31;62438;52.228;6.864;2023-03-01T10:17:06;5.54;53.26
74081;SHT31;62438;52.228;6.864;2023-03-01T10:19:14;5.54;52.81
74081;SHT31;62438;52.228;6.864;2023-03-01T10:21:18;5.45;53.09
74081;SHT31;62438;52.228;6.864;2023-03-01T10:23:19;5.63;53.62
74081;SHT31;62438;52.228;6.864;2023-03-01T10:32:03;6.28;50.55
74081;SHT31;62438;52.228;6.864;2023-03-01T10:34:13;5.85;51.84
74081;SHT31;62438;52.228;6.864;2023-03-01T10:36:14;5.90;51.89
74081;SHT31;62438;52.228;6.864;2023-03-01T10:38:15;5.99;51.24
74081;SHT31;62438;52.228;6.864;2023-03-01T10:40:16;6.03;51.53
74081;SHT31;62438;52.228;6.864;2023-03-01T10:42:25;6.36;50.56
74081;SHT31;62438;52.228;6.864;2023-03-01T10:44:45;6.51;49.16
74081;SHT31;62438;52.228;6.864;2023-03-01T10:46:59;6.26;50.62
74081;SHT31;62438;52.228;6.864;2023-03-01T10:49:19;6.64;48.79
74081;SHT31;62438;52.228;6.864;2023-03-01T10:51:20;6.72;49.09
74081;SHT31;62438;52.228;6.864;2023-03-01T10:53:29;6.65;48.58
74081;SHT31;62438;52.228;6.864;2023-03-01T10:55:36;6.78;47.82
74081;SHT31;62438;52.228;6.864;2023-03-01T10:57:38;6.88;48.44
74081;SHT31;62438;52.228;6.864;2023-03-01T10:59:40;7.07;48.22
74081;SHT31;62438;52.228;6.864;2023-03-01T11:01:40;7.23;47.78
74081;SHT31;62438;52.228;6.864;2023-03-01T11:03:41;7.46;47.72
74081;SHT31;62438;52.228;6.864;2023-03-01T11:08:02;7.77;46.21
74081;SHT31;62438;52.228;6.864;2023-03-01T11:10:11;7.61;45.01
74081;SHT31;62438;52.228;6.864;2023-03-01T11:12:15;7.24;46.39
74081;SHT31;62438;52.228;6.864;2023-03-01T11:14:20;7.67;45.06
74081;SHT31;62438;52.228;6.864;2023-03-01T11:21:09;7.22;45.24
74081;SHT31;62438;52.228;6.864;2023-03-01T11:23:12;7.86;44.77
74081;SHT31;62438;52.228;6.864;2023-03-01T11:25:13;7.92;43.92
74081;SHT31;62438;52.228;6.864;2023-03-01T11:27:33;7.65;43.82
74081;SHT31;62438;52.228;6.864;2023-03-01T11:29:42;7.23;44.64
74081;SHT31;62438;52.228;6.864;2023-03-01T11:31:45;7.47;45.90
74081;SHT31;62438;52.228;6.864;2023-03-01T11:34:10;7.43;45.24
74081;SHT31;62438;52.228;6.864;2023-03-01T11:36:28;7.42;44.22
74081;SHT31;62438;52.228;6.864;2023-03-01T11:38:34;7.61;44.56
74081;SHT31;62438;52.228;6.864;2023-03-01T11:40:42;7.57;43.47
74081;SHT31;62438;52.228;6.864;2023-03-01T11:42:50;7.53;43.85
74081;SHT31;62438;52.228;6.864;2023-03-01T11:44:54;7.65;43.81
74081;SHT31;62438;52.228;6.864;2023-03-01T11:49:51;7.37;45.17
74081;SHT31;62438;52.228;6.864;2023-03-01T11:55:05;7.27;45.80
74081;SHT31;62438;52.228;6.864;2023-03-01T11:56:55;7.70;45.03
74081;SHT31;62438;52.228;6.864;2023-03-01T12:05:55;7.82;45.25
74081;SHT31;62438;52.228;6.864;2023-03-01T12:08:09;7.30;45.40
74081;SHT31;62438;52.228;6.864;2023-03-01T12:10:26;7.34;46.55
74081;SHT31;62438;52.228;6.864;2023-03-01T12:12:42;7.13;46.30
74081;SHT31;62438;52.228;6.864;2023-03-01T12:17:07;6.51;46.89
74081;SHT31;62438;52.228;6.864;2023-03-01T12:21:34;6.81;47.94
74081;SHT31;62438;52.228;6.864;2023-03-01T12:23:51;6.68;47.96
74081;SHT31;62438;52.228;6.864;2023-03-01T12:32:40;6.63;46.67
74081;SHT31;62438;52.228;6.864;2023-03-01T12:35:05;6.75;46.36
74081;SHT31;62438;52.228;6.864;2023-03-01T12:49:12;6.78;46.59
74081;SHT31;62438;52.228;6.864;2023-03-01T12:51:16;6.74;47.59
74081;SHT31;62438;52.228;6.864;2023-03-01T12:53:28;6.93;47.75
74081;SHT31;62438;52.228;6.864;2023-03-01T12:55:35;7.00;47.42
74081;SHT31;62438;52.228;6.864;2023-03-01T12:57:57;7.20;47.46
74081;SHT31;62438;52.228;6.864;2023-03-01T13:00:27;7.20;47.19
74081;SHT31;62438;52.228;6.864;2023-03-01T13:06:47;7.43;45.96
74081;SHT31;62438;52.228;6.864;2023-03-01T13:09:09;7.27;44.57
74081;SHT31;62438;52.228;6.864;2023-03-01T13:11:17;7.22;44.09
74081;SHT31;62438;52.228;6.864;2023-03-01T13:13:24;7.22;44.14
74081;SHT31;62438;52.228;6.864;2023-03-01T13:17:31;7.24;45.41
74081;SHT31;62438;52.228;6.864;2023-03-01T13:19:32;7.33;44.62
74081;SHT31;62438;52.228;6.864;2023-03-01T13:21:32;7.77;44.89
74081;SHT31;62438;52.228;6.864;2023-03-01T13:23:35;7.67;42.52
74081;SHT31;62438;52.228;6.864;2023-03-01T13:32:36;7.96;42.60
74081;SHT31;62438;52.228;6.864;2023-03-01T13:34:48;8.03;42.52
74081;SHT31;62438;52.228;6.864;2023-03-01T13:36:49;7.85;43.24
74081;SHT31;62438;52.228;6.864;2023-03-01T13:38:56;7.71;43.68
74081;SHT31;62438;52.228;6.864;2023-03-01T13:40:58;7.74;42.78
74081;SHT31;62438;52.228;6.864;2023-03-01T13:43:32;7.70;44.05
74081;SHT31;62438;52.228;6.864;2023-03-01T13:45:39;7.74;45.53
74081;SHT31;62438;52.228;6.864;2023-03-01T13:47:41;7.86;45.76
74081;SHT31;62438;52.228;6.864;2023-03-01T13:49:50;7.81;45.24
74081;SHT31;62438;52.228;6.864;2023-03-01T13:51:52;7.79;45.03
74081;SHT31;62438;52.228;6.864;2023-03-01T13:53:53;8.07;44.76
74081;SHT31;62438;52.228;6.864;2023-03-01T13:55:58;7.99;44.57
74081;SHT31;62438;52.228;6.864;2023-03-01T13:58:04;7.85;43.64
74081;SHT31;62438;52.228;6.864;2023-03-01T14:00:05;7.89;43.11
74081;SHT31;62438;52.228;6.864;2023-03-01T14:02:16;7.82;42.27
74081;SHT31;62438;52.228;6.864;2023-03-01T14:06:26;7.63;43.79
74081;SHT31;62438;52.228;6.864;2023-03-01T14:08:29;7.44;44.02
74081;SHT31;62438;52.228;6.864;2023-03-01T14:10:36;7.33;44.22
74081;SHT31;62438;52.228;6.864;2023-03-01T14:13:05;7.31;44.39
74081;SHT31;62438;52.228;6.864;2023-03-01T14:15:37;7.26;44.66
74081;SHT31;62438;52.228;6.864;2023-03-01T14:19:59;7.03;44.05